sensor_id;sensor_type;location;lat;lon;timestamp;P1;durP1;ratioP1;P2;durP2;ratioP2
7029;SDS011;3556;53.500;10.176;2023-07-13T00:01:28;2.10;;;2.00;;
7029;SDS011;3556;53.500;10.176;2023-07-13T00:03:56;8.30;;;2.23;;
7029;SDS011;3556;53.500;10.176;2023-07-13T00:06:22;4.60;;;2.20;;
7029;SDS011;3556;53.500;10.176;2023-07-13T00:08:48;3.77;;;2.37;;
7029;SDS011;3556;53.500;10.176;2023-07-13T00:11:14;3.43;;;2.03;;
7029;SDS011;3556;53.500;10.176;2023-07-13T00:13:41;2.73;;;2.27;;
7029;SDS011;3556;53.500;10.176;2023-07-13T00:16:08;8.10;;;2.10;;
7029;SDS011;3556;53.500;10.176;2023-07-13T00:18:35;6.03;;;2.33;;
7029;SDS011;3556;53.500;10.176;2023-07-13T00:21:00;2.10;;;1.97;;
7029;SDS011;3556;53.500;10.176;2023-07-13T00:23:30;2.60;;;2.30;;
7029;SDS011;3556;53.500;10.176;2023-07-13T00:25:58;3.70;;;2.50;;
7029;SDS011;3556;53.500;10.176;2023-07-13T00:28:25;4.87;;;2.40;;
7029;SDS011;3556;53.500;10.176;2023-07-13T00:30:50;6.33;;;2.40;;
7029;SDS011;3556;53.500;10.176;2023-07-13T00:33:16;6.33;;;2.27;;
7029;SDS011;3556;53.500;10.176;2023-07-13T00:35:42;3.43;;;2.10;;
7029;SDS011;3556;53.500;10.176;2023-07-13T00:38:08;4.50;;;2.40;;
7029;SDS011;3556;53.500;10.176;2023-07-13T00:40:34;2.43;;;2.00;;
7029;SDS011;3556;53.500;10.176;2023-07-13T00:43:00;3.40;;;2.30;;
7029;SDS011;3556;53.500;10.176;2023-07-13T00:47:51;3.03;;;2.70;;
7029;SDS011;3556;53.500;10.176;2023-07-13T00:50:17;3.50;;;2.30;;
7029;SDS011;3556;53.500;10.176;2023-07-13T00:52:47;6.60;;;2.47;;
7029;SDS011;3556;53.500;10.176;2023-07-13T00:55:17;3.00;;;2.77;;
7029;SDS011;3556;53.500;10.176;2023-07-13T00:57:43;5.00;;;2.53;;
7029;SDS011;3556;53.500;10.176;2023-07-13T01:00:09;6.23;;;2.40;;
7029;SDS011;3556;53.500;10.176;2023-07-13T01:02:41;4.10;;;2.57;;
7029;SDS011;3556;53.500;10.176;2023-07-13T01:05:10;2.40;;;1.90;;
7029;SDS011;3556;53.500;10.176;2023-07-13T01:07:39;2.33;;;2.23;;
7029;SDS011;3556;53.500;10.176;2023-07-13T01:10:05;4.03;;;2.60;;
7029;SDS011;3556;53.500;10.176;2023-07-13T01:12:32;2.87;;;2.40;;
7029;SDS011;3556;53.500;10.176;2023-07-13T01:14:58;3.40;;;2.30;;
7029;SDS011;3556;53.500;10.176;2023-07-13T01:17:25;4.13;;;3.03;;
7029;SDS011;3556;53.500;10.176;2023-07-13T01:19:52;2.73;;;2.50;;
7029;SDS011;3556;53.500;10.176;2023-07-13T01:22:18;2.67;;;2.40;;
7029;SDS011;3556;53.500;10.176;2023-07-13T01:24:46;2.27;;;1.70;;
7029;SDS011;3556;53.500;10.176;2023-07-13T01:27:14;3.93;;;2.63;;
7029;SDS011;3556;53.500;10.176;2023-07-13T01:29:43;3.10;;;2.40;;
7029;SDS011;3556;53.500;10.176;2023-07-13T01:32:12;3.20;;;2.90;;
7029;SDS011;3556;53.500;10.176;2023-07-13T01:34:40;5.93;;;2.83;;
7029;SDS011;3556;53.500;10.176;2023-07-13T01:37:09;3.93;;;2.53;;
7029;SDS011;3556;53.500;10.176;2023-07-13T01:39:36;6.67;;;2.30;;
7029;SDS011;3556;53.500;10.176;2023-07-13T01:42:02;2.40;;;2.27;;
7029;SDS011;3556;53.500;10.176;2023-07-13T01:44:28;2.63;;;2.40;;
7029;SDS011;3556;53.500;10.176;2023-07-13T01:46:54;8.60;;;2.73;;
7029;SDS011;3556;53.500;10.176;2023-07-13T01:49:20;2.30;;;2.20;;
7029;SDS011;3556;53.500;10.176;2023-07-13T01:51:46;2.53;;;2.30;;
7029;SDS011;3556;53.500;10.176;2023-07-13T01:54:11;2.23;;;2.13;;
7029;SDS011;3556;53.500;10.176;2023-07-13T01:56:37;4.03;;;2.30;;
7029;SDS011;3556;53.500;10.176;2023-07-13T01:59:02;4.03;;;2.70;;
7029;SDS011;3556;53.500;10.176;2023-07-13T02:01:28;6.57;;;2.97;;
7029;SDS011;3556;53.500;10.176;2023-07-13T02:03:53;4.57;;;2.60;;
7029;SDS011;3556;53.500;10.176;2023-07-13T02:06:19;3.00;;;2.07;;
7029;SDS011;3556;53.500;10.176;2023-07-13T02:08:45;6.40;;;3.03;;
7029;SDS011;3556;53.500;10.176;2023-07-13T02:11:10;5.50;;;2.73;;
7029;SDS011;3556;53.500;10.176;2023-07-13T02:13:36;2.90;;;2.70;;
7029;SDS011;3556;53.500;10.176;2023-07-13T02:16:02;4.37;;;2.60;;
7029;SDS011;3556;53.500;10.176;2023-07-13T02:18:28;3.73;;;3.43;;
7029;SDS011;3556;53.500;10.176;2023-07-13T02:20:53;3.57;;;3.03;;
7029;SDS011;3556;53.500;10.176;2023-07-13T02:23:19;5.67;;;3.97;;
7029;SDS011;3556;53.500;10.176;2023-07-13T02:25:45;4.00;;;3.47;;
7029;SDS011;3556;53.500;10.176;2023-07-13T02:28:10;4.33;;;3.67;;
7029;SDS011;3556;53.500;10.176;2023-07-13T02:30:36;6.30;;;3.93;;
7029;SDS011;3556;53.500;10.176;2023-07-13T02:33:03;7.53;;;3.80;;
7029;SDS011;3556;53.500;10.176;2023-07-13T02:35:29;9.10;;;4.37;;
7029;SDS011;3556;53.500;10.176;2023-07-13T02:37:55;4.00;;;3.70;;
7029;SDS011;3556;53.500;10.176;2023-07-13T02:40:20;4.07;;;3.60;;
7029;SDS011;3556;53.500;10.176;2023-07-13T02:42:46;5.97;;;4.43;;
7029;SDS011;3556;53.500;10.176;2023-07-13T02:45:11;5.57;;;4.30;;
7029;SDS011;3556;53.500;10.176;2023-07-13T02:47:39;7.03;;;4.70;;
7029;SDS011;3556;53.500;10.176;2023-07-13T02:50:05;12.57;;;3.80;;
7029;SDS011;3556;53.500;10.176;2023-07-13T02:52:31;4.63;;;4.23;;
7029;SDS011;3556;53.500;10.176;2023-07-13T02:54:57;4.20;;;3.77;;
7029;SDS011;3556;53.500;10.176;2023-07-13T02:57:23;7.10;;;3.80;;
7029;SDS011;3556;53.500;10.176;2023-07-13T02:59:48;4.60;;;3.00;;
7029;SDS011;3556;53.500;10.176;2023-07-13T03:02:14;4.43;;;3.50;;
7029;SDS011;3556;53.500;10.176;2023-07-13T03:04:40;4.87;;;4.47;;
7029;SDS011;3556;53.500;10.176;2023-07-13T03:07:06;4.83;;;3.60;;
7029;SDS011;3556;53.500;10.176;2023-07-13T03:09:33;3.87;;;3.53;;
7029;SDS011;3556;53.500;10.176;2023-07-13T03:11:59;4.60;;;4.20;;
7029;SDS011;3556;53.500;10.176;2023-07-13T03:14:25;4.10;;;3.67;;
7029;SDS011;3556;53.500;10.176;2023-07-13T03:16:51;8.03;;;3.47;;
7029;SDS011;3556;53.500;10.176;2023-07-13T03:19:17;7.13;;;4.37;;
7029;SDS011;3556;53.500;10.176;2023-07-13T03:21:43;4.03;;;3.63;;
7029;SDS011;3556;53.500;10.176;2023-07-13T03:24:09;3.77;;;3.27;;
7029;SDS011;3556;53.500;10.176;2023-07-13T03:26:35;5.87;;;3.40;;
7029;SDS011;3556;53.500;10.176;2023-07-13T03:29:00;8.80;;;4.40;;
7029;SDS011;3556;53.500;10.176;2023-07-13T03:31:27;7.60;;;4.40;;
7029;SDS011;3556;53.500;10.176;2023-07-13T03:33:54;4.30;;;3.53;;
7029;SDS011;3556;53.500;10.176;2023-07-13T03:36:23;4.50;;;4.10;;
7029;SDS011;3556;53.500;10.176;2023-07-13T03:38:52;4.33;;;4.00;;
7029;SDS011;3556;53.500;10.176;2023-07-13T03:41:20;4.70;;;4.30;;
7029;SDS011;3556;53.500;10.176;2023-07-13T03:43:46;5.73;;;4.13;;
7029;SDS011;3556;53.500;10.176;2023-07-13T03:46:13;5.60;;;4.43;;
7029;SDS011;3556;53.500;10.176;2023-07-13T03:48:39;7.10;;;4.03;;
7029;SDS011;3556;53.500;10.176;2023-07-13T03:51:07;4.53;;;4.03;;
7029;SDS011;3556;53.500;10.176;2023-07-13T03:53:34;4.67;;;4.27;;
7029;SDS011;3556;53.500;10.176;2023-07-13T03:56:03;8.50;;;4.40;;
7029;SDS011;3556;53.500;10.176;2023-07-13T03:58:33;5.50;;;4.40;;
7029;SDS011;3556;53.500;10.176;2023-07-13T04:01:00;6.87;;;5.10;;
7029;SDS011;3556;53.500;10.176;2023-07-13T04:03:27;7.80;;;4.50;;
7029;SDS011;3556;53.500;10.176;2023-07-13T04:05:56;5.80;;;5.20;;
7029;SDS011;3556;53.500;10.176;2023-07-13T04:08:28;7.33;;;4.80;;
7029;SDS011;3556;53.500;10.176;2023-07-13T04:10:55;6.77;;;4.80;;
7029;SDS011;3556;53.500;10.176;2023-07-13T04:13:21;12.40;;;6.03;;
7029;SDS011;3556;53.500;10.176;2023-07-13T04:15:47;6.07;;;5.03;;
7029;SDS011;3556;53.500;10.176;2023-07-13T04:18:12;7.07;;;5.00;;
7029;SDS011;3556;53.500;10.176;2023-07-13T04:20:38;7.07;;;5.53;;
7029;SDS011;3556;53.500;10.176;2023-07-13T04:23:04;11.33;;;5.67;;
7029;SDS011;3556;53.500;10.176;2023-07-13T04:25:29;9.53;;;4.90;;
7029;SDS011;3556;53.500;10.176;2023-07-13T04:27:55;7.53;;;5.40;;
7029;SDS011;3556;53.500;10.176;2023-07-13T04:30:21;6.47;;;5.27;;
7029;SDS011;3556;53.500;10.176;2023-07-13T04:32:47;5.70;;;5.20;;
7029;SDS011;3556;53.500;10.176;2023-07-13T04:35:14;8.90;;;5.73;;
7029;SDS011;3556;53.500;10.176;2023-07-13T04:37:40;11.10;;;5.37;;
7029;SDS011;3556;53.500;10.176;2023-07-13T04:40:06;13.07;;;5.33;;
7029;SDS011;3556;53.500;10.176;2023-07-13T04:42:36;14.93;;;6.00;;
7029;SDS011;3556;53.500;10.176;2023-07-13T04:45:02;11.07;;;5.60;;
7029;SDS011;3556;53.500;10.176;2023-07-13T04:47:29;5.40;;;4.83;;
7029;SDS011;3556;53.500;10.176;2023-07-13T04:49:55;14.53;;;6.40;;
7029;SDS011;3556;53.500;10.176;2023-07-13T04:52:22;8.17;;;6.10;;
7029;SDS011;3556;53.500;10.176;2023-07-13T04:54:48;7.70;;;6.80;;
7029;SDS011;3556;53.500;10.176;2023-07-13T04:57:14;12.50;;;6.77;;
7029;SDS011;3556;53.500;10.176;2023-07-13T04:59:39;15.10;;;7.67;;
7029;SDS011;3556;53.500;10.176;2023-07-13T05:02:05;7.73;;;6.50;;
7029;SDS011;3556;53.500;10.176;2023-07-13T05:04:31;8.57;;;6.30;;
7029;SDS011;3556;53.500;10.176;2023-07-13T05:06:56;9.97;;;6.80;;
7029;SDS011;3556;53.500;10.176;2023-07-13T05:09:22;11.00;;;7.10;;
7029;SDS011;3556;53.500;10.176;2023-07-13T05:11:48;9.87;;;6.60;;
7029;SDS011;3556;53.500;10.176;2023-07-13T05:14:13;12.43;;;6.37;;
7029;SDS011;3556;53.500;10.176;2023-07-13T05:16:41;10.33;;;6.40;;
7029;SDS011;3556;53.500;10.176;2023-07-13T05:19:07;14.57;;;7.27;;
7029;SDS011;3556;53.500;10.176;2023-07-13T05:21:33;13.30;;;7.30;;
7029;SDS011;3556;53.500;10.176;2023-07-13T05:23:59;13.30;;;6.90;;
7029;SDS011;3556;53.500;10.176;2023-07-13T05:26:25;10.80;;;6.60;;
7029;SDS011;3556;53.500;10.176;2023-07-13T05:28:50;16.83;;;7.50;;
7029;SDS011;3556;53.500;10.176;2023-07-13T05:31:16;10.93;;;6.90;;
7029;SDS011;3556;53.500;10.176;2023-07-13T05:33:42;11.97;;;7.03;;
7029;SDS011;3556;53.500;10.176;2023-07-13T05:36:07;9.70;;;6.57;;
7029;SDS011;3556;53.500;10.176;2023-07-13T05:38:33;9.77;;;6.30;;
7029;SDS011;3556;53.500;10.176;2023-07-13T05:40:59;12.13;;;6.50;;
7029;SDS011;3556;53.500;10.176;2023-07-13T05:43:25;11.10;;;5.70;;
7029;SDS011;3556;53.500;10.176;2023-07-13T05:45:54;11.03;;;5.57;;
7029;SDS011;3556;53.500;10.176;2023-07-13T05:48:21;12.73;;;5.40;;
7029;SDS011;3556;53.500;10.176;2023-07-13T05:50:47;8.50;;;5.40;;
7029;SDS011;3556;53.500;10.176;2023-07-13T05:53:12;15.80;;;5.20;;
7029;SDS011;3556;53.500;10.176;2023-07-13T05:55:45;7.60;;;4.57;;
7029;SDS011;3556;53.500;10.176;2023-07-13T05:58:18;8.93;;;4.53;;
7029;SDS011;3556;53.500;10.176;2023-07-13T06:00:44;11.10;;;4.27;;
7029;SDS011;3556;53.500;10.176;2023-07-13T06:03:10;7.20;;;3.90;;
7029;SDS011;3556;53.500;10.176;2023-07-13T06:05:36;8.03;;;4.57;;
7029;SDS011;3556;53.500;10.176;2023-07-13T06:08:04;9.63;;;3.67;;
7029;SDS011;3556;53.500;10.176;2023-07-13T06:10:32;18.73;;;4.30;;
7029;SDS011;3556;53.500;10.176;2023-07-13T06:12:59;11.43;;;4.23;;
7029;SDS011;3556;53.500;10.176;2023-07-13T06:15:25;13.43;;;4.27;;
7029;SDS011;3556;53.500;10.176;2023-07-13T06:17:50;9.90;;;3.97;;
7029;SDS011;3556;53.500;10.176;2023-07-13T06:20:16;14.17;;;3.83;;
7029;SDS011;3556;53.500;10.176;2023-07-13T06:22:41;7.70;;;4.00;;
7029;SDS011;3556;53.500;10.176;2023-07-13T06:25:07;16.07;;;3.80;;
7029;SDS011;3556;53.500;10.176;2023-07-13T06:27:33;8.57;;;3.60;;
7029;SDS011;3556;53.500;10.176;2023-07-13T06:29:59;16.40;;;4.30;;
7029;SDS011;3556;53.500;10.176;2023-07-13T06:32:24;8.27;;;3.73;;
7029;SDS011;3556;53.500;10.176;2023-07-13T06:34:50;14.67;;;3.67;;
7029;SDS011;3556;53.500;10.176;2023-07-13T06:37:17;16.33;;;3.30;;
7029;SDS011;3556;53.500;10.176;2023-07-13T06:39:43;8.90;;;3.53;;
7029;SDS011;3556;53.500;10.176;2023-07-13T06:42:08;10.03;;;3.20;;
7029;SDS011;3556;53.500;10.176;2023-07-13T06:44:34;13.77;;;3.13;;
7029;SDS011;3556;53.500;10.176;2023-07-13T06:47:00;14.60;;;3.20;;
7029;SDS011;3556;53.500;10.176;2023-07-13T06:49:26;17.63;;;3.50;;
7029;SDS011;3556;53.500;10.176;2023-07-13T06:51:51;8.17;;;3.10;;
7029;SDS011;3556;53.500;10.176;2023-07-13T06:54:17;12.43;;;3.60;;
7029;SDS011;3556;53.500;10.176;2023-07-13T06:56:42;8.33;;;3.20;;
7029;SDS011;3556;53.500;10.176;2023-07-13T06:59:08;6.77;;;3.27;;
7029;SDS011;3556;53.500;10.176;2023-07-13T07:01:34;17.43;;;2.93;;
7029;SDS011;3556;53.500;10.176;2023-07-13T07:03:59;15.10;;;3.07;;
7029;SDS011;3556;53.500;10.176;2023-07-13T07:06:25;6.40;;;2.93;;
7029;SDS011;3556;53.500;10.176;2023-07-13T07:08:51;13.77;;;3.43;;
7029;SDS011;3556;53.500;10.176;2023-07-13T07:11:18;10.83;;;3.13;;
7029;SDS011;3556;53.500;10.176;2023-07-13T07:13:47;8.63;;;2.83;;
7029;SDS011;3556;53.500;10.176;2023-07-13T07:16:12;8.13;;;2.77;;
7029;SDS011;3556;53.500;10.176;2023-07-13T07:18:38;11.07;;;3.07;;
7029;SDS011;3556;53.500;10.176;2023-07-13T07:21:04;7.73;;;3.23;;
7029;SDS011;3556;53.500;10.176;2023-07-13T07:23:30;10.90;;;3.20;;
7029;SDS011;3556;53.500;10.176;2023-07-13T07:25:55;4.97;;;2.80;;
7029;SDS011;3556;53.500;10.176;2023-07-13T07:28:21;11.60;;;3.13;;
7029;SDS011;3556;53.500;10.176;2023-07-13T07:30:47;11.43;;;3.07;;
7029;SDS011;3556;53.500;10.176;2023-07-13T07:33:14;12.30;;;3.60;;
7029;SDS011;3556;53.500;10.176;2023-07-13T07:35:41;8.13;;;3.07;;
7029;SDS011;3556;53.500;10.176;2023-07-13T07:38:08;5.43;;;2.60;;
7029;SDS011;3556;53.500;10.176;2023-07-13T07:40:36;8.63;;;3.00;;
7029;SDS011;3556;53.500;10.176;2023-07-13T07:43:02;6.20;;;3.17;;
7029;SDS011;3556;53.500;10.176;2023-07-13T07:45:28;8.03;;;3.03;;
7029;SDS011;3556;53.500;10.176;2023-07-13T07:47:54;9.40;;;2.83;;
7029;SDS011;3556;53.500;10.176;2023-07-13T07:50:23;10.70;;;3.13;;
7029;SDS011;3556;53.500;10.176;2023-07-13T07:52:50;4.67;;;2.90;;
7029;SDS011;3556;53.500;10.176;2023-07-13T07:55:16;12.00;;;2.90;;
7029;SDS011;3556;53.500;10.176;2023-07-13T07:57:41;14.73;;;3.50;;
7029;SDS011;3556;53.500;10.176;2023-07-13T08:00:07;6.17;;;2.67;;
7029;SDS011;3556;53.500;10.176;2023-07-13T08:02:33;8.20;;;3.80;;
7029;SDS011;3556;53.500;10.176;2023-07-13T08:04:59;10.40;;;4.20;;
7029;SDS011;3556;53.500;10.176;2023-07-13T08:07:24;8.00;;;3.50;;
7029;SDS011;3556;53.500;10.176;2023-07-13T08:09:53;12.63;;;4.20;;
7029;SDS011;3556;53.500;10.176;2023-07-13T08:12:19;15.93;;;3.60;;
7029;SDS011;3556;53.500;10.176;2023-07-13T08:14:45;11.37;;;4.20;;
7029;SDS011;3556;53.500;10.176;2023-07-13T08:17:14;7.73;;;4.07;;
7029;SDS011;3556;53.500;10.176;2023-07-13T08:19:40;10.57;;;4.00;;
7029;SDS011;3556;53.500;10.176;2023-07-13T08:22:05;5.80;;;3.40;;
7029;SDS011;3556;53.500;10.176;2023-07-13T08:24:31;6.80;;;2.83;;
7029;SDS011;3556;53.500;10.176;2023-07-13T08:26:56;6.73;;;3.20;;
7029;SDS011;3556;53.500;10.176;2023-07-13T08:29:22;10.17;;;3.90;;
7029;SDS011;3556;53.500;10.176;2023-07-13T08:31:48;9.60;;;3.17;;
7029;SDS011;3556;53.500;10.176;2023-07-13T08:34:13;14.20;;;3.50;;
7029;SDS011;3556;53.500;10.176;2023-07-13T08:36:39;14.07;;;3.70;;
7029;SDS011;3556;53.500;10.176;2023-07-13T08:39:05;11.50;;;3.13;;
7029;SDS011;3556;53.500;10.176;2023-07-13T08:41:31;8.43;;;2.97;;
7029;SDS011;3556;53.500;10.176;2023-07-13T08:43:58;10.60;;;3.80;;
7029;SDS011;3556;53.500;10.176;2023-07-13T08:46:32;11.93;;;3.43;;
7029;SDS011;3556;53.500;10.176;2023-07-13T08:49:05;10.77;;;2.90;;
7029;SDS011;3556;53.500;10.176;2023-07-13T08:51:41;11.37;;;3.20;;
7029;SDS011;3556;53.500;10.176;2023-07-13T08:54:37;10.47;;;3.07;;
7029;SDS011;3556;53.500;10.176;2023-07-13T08:57:15;8.53;;;3.00;;
7029;SDS011;3556;53.500;10.176;2023-07-13T08:59:42;6.57;;;2.97;;
7029;SDS011;3556;53.500;10.176;2023-07-13T09:07:32;7.03;;;2.93;;
7029;SDS011;3556;53.500;10.176;2023-07-13T09:10:57;6.20;;;2.90;;
7029;SDS011;3556;53.500;10.176;2023-07-13T09:15:57;6.70;;;3.17;;
7029;SDS011;3556;53.500;10.176;2023-07-13T09:18:28;5.60;;;3.43;;
7029;SDS011;3556;53.500;10.176;2023-07-13T09:21:05;7.93;;;3.23;;
7029;SDS011;3556;53.500;10.176;2023-07-13T09:23:35;8.53;;;3.13;;
7029;SDS011;3556;53.500;10.176;2023-07-13T09:26:12;10.60;;;3.53;;
7029;SDS011;3556;53.500;10.176;2023-07-13T09:28:44;4.57;;;3.37;;
7029;SDS011;3556;53.500;10.176;2023-07-13T09:31:16;4.53;;;3.70;;
7029;SDS011;3556;53.500;10.176;2023-07-13T09:34:02;8.17;;;4.10;;
7029;SDS011;3556;53.500;10.176;2023-07-13T09:36:31;8.17;;;3.93;;
7029;SDS011;3556;53.500;10.176;2023-07-13T09:39:04;7.17;;;4.00;;
7029;SDS011;3556;53.500;10.176;2023-07-13T09:41:51;8.47;;;4.60;;
7029;SDS011;3556;53.500;10.176;2023-07-13T09:44:29;7.63;;;4.37;;
7029;SDS011;3556;53.500;10.176;2023-07-13T09:47:17;9.27;;;4.87;;
7029;SDS011;3556;53.500;10.176;2023-07-13T09:49:44;12.63;;;4.73;;
7029;SDS011;3556;53.500;10.176;2023-07-13T09:52:11;7.73;;;4.10;;
7029;SDS011;3556;53.500;10.176;2023-07-13T09:54:39;7.90;;;3.87;;
7029;SDS011;3556;53.500;10.176;2023-07-13T09:57:13;7.43;;;4.67;;
7029;SDS011;3556;53.500;10.176;2023-07-13T09:59:42;8.43;;;4.60;;
7029;SDS011;3556;53.500;10.176;2023-07-13T10:05:04;11.87;;;5.27;;
7029;SDS011;3556;53.500;10.176;2023-07-13T10:07:34;4.73;;;3.70;;
7029;SDS011;3556;53.500;10.176;2023-07-13T10:10:12;8.70;;;4.27;;
7029;SDS011;3556;53.500;10.176;2023-07-13T10:12:40;9.33;;;4.03;;
7029;SDS011;3556;53.500;10.176;2023-07-13T10:15:06;7.50;;;3.50;;
7029;SDS011;3556;53.500;10.176;2023-07-13T10:17:49;4.80;;;3.80;;
7029;SDS011;3556;53.500;10.176;2023-07-13T10:20:15;4.03;;;3.13;;
7029;SDS011;3556;53.500;10.176;2023-07-13T10:22:46;9.70;;;3.67;;
7029;SDS011;3556;53.500;10.176;2023-07-13T10:25:18;7.50;;;3.30;;
7029;SDS011;3556;53.500;10.176;2023-07-13T10:27:47;6.03;;;3.53;;
7029;SDS011;3556;53.500;10.176;2023-07-13T10:30:21;13.20;;;3.80;;
7029;SDS011;3556;53.500;10.176;2023-07-13T10:32:54;7.10;;;3.27;;
7029;SDS011;3556;53.500;10.176;2023-07-13T10:35:23;7.70;;;4.07;;
7029;SDS011;3556;53.500;10.176;2023-07-13T10:37:52;7.20;;;3.07;;
7029;SDS011;3556;53.500;10.176;2023-07-13T10:40:29;5.80;;;3.33;;
7029;SDS011;3556;53.500;10.176;2023-07-13T10:42:58;9.47;;;3.70;;
7029;SDS011;3556;53.500;10.176;2023-07-13T10:45:27;5.93;;;2.90;;
7029;SDS011;3556;53.500;10.176;2023-07-13T10:47:57;6.40;;;2.80;;
7029;SDS011;3556;53.500;10.176;2023-07-13T10:50:24;5.20;;;3.47;;
7029;SDS011;3556;53.500;10.176;2023-07-13T10:53:01;4.40;;;2.90;;
7029;SDS011;3556;53.500;10.176;2023-07-13T11:00:49;6.27;;;3.80;;
7029;SDS011;3556;53.500;10.176;2023-07-13T11:06:13;5.50;;;3.20;;
7029;SDS011;3556;53.500;10.176;2023-07-13T11:18:48;3.70;;;2.87;;
7029;SDS011;3556;53.500;10.176;2023-07-13T11:21:34;4.37;;;2.60;;
7029;SDS011;3556;53.500;10.176;2023-07-13T11:31:43;2.20;;;2.00;;
7029;SDS011;3556;53.500;10.176;2023-07-13T11:34:18;3.77;;;2.40;;
7029;SDS011;3556;53.500;10.176;2023-07-13T11:36:50;2.90;;;2.30;;
7029;SDS011;3556;53.500;10.176;2023-07-13T11:39:24;2.83;;;2.50;;
7029;SDS011;3556;53.500;10.176;2023-07-13T11:42:03;6.50;;;2.10;;
7029;SDS011;3556;53.500;10.176;2023-07-13T11:44:32;2.90;;;2.27;;
7029;SDS011;3556;53.500;10.176;2023-07-13T11:47:00;6.30;;;2.20;;
7029;SDS011;3556;53.500;10.176;2023-07-13T11:49:40;4.90;;;2.50;;
7029;SDS011;3556;53.500;10.176;2023-07-13T11:52:16;4.77;;;2.33;;
7029;SDS011;3556;53.500;10.176;2023-07-13T11:54:46;2.63;;;1.70;;
7029;SDS011;3556;53.500;10.176;2023-07-13T11:57:29;6.40;;;1.80;;
7029;SDS011;3556;53.500;10.176;2023-07-13T12:00:00;2.80;;;2.03;;
7029;SDS011;3556;53.500;10.176;2023-07-13T12:02:32;4.10;;;2.20;;
7029;SDS011;3556;53.500;10.176;2023-07-13T12:05:00;3.03;;;1.70;;
7029;SDS011;3556;53.500;10.176;2023-07-13T12:07:29;3.10;;;1.90;;
7029;SDS011;3556;53.500;10.176;2023-07-13T12:10:00;1.80;;;1.70;;
7029;SDS011;3556;53.500;10.176;2023-07-13T12:12:55;2.33;;;1.60;;
7029;SDS011;3556;53.500;10.176;2023-07-13T12:15:32;2.10;;;1.90;;
7029;SDS011;3556;53.500;10.176;2023-07-13T12:18:10;2.53;;;1.73;;
7029;SDS011;3556;53.500;10.176;2023-07-13T12:20:47;2.10;;;1.80;;
7029;SDS011;3556;53.500;10.176;2023-07-13T12:25:45;4.53;;;2.10;;
7029;SDS011;3556;53.500;10.176;2023-07-13T12:30:59;4.60;;;2.10;;
7029;SDS011;3556;53.500;10.176;2023-07-13T12:33:30;9.20;;;2.33;;
7029;SDS011;3556;53.500;10.176;2023-07-13T12:35:57;4.60;;;2.20;;
7029;SDS011;3556;53.500;10.176;2023-07-13T12:38:27;2.93;;;1.63;;
7029;SDS011;3556;53.500;10.176;2023-07-13T12:40:53;2.40;;;1.90;;
7029;SDS011;3556;53.500;10.176;2023-07-13T12:43:19;6.27;;;1.87;;
7029;SDS011;3556;53.500;10.176;2023-07-13T12:48:27;4.60;;;2.10;;
7029;SDS011;3556;53.500;10.176;2023-07-13T12:50:53;5.53;;;1.93;;
7029;SDS011;3556;53.500;10.176;2023-07-13T12:53:22;5.50;;;2.17;;
7029;SDS011;3556;53.500;10.176;2023-07-13T12:55:54;5.47;;;2.30;;
7029;SDS011;3556;53.500;10.176;2023-07-13T12:58:30;2.60;;;2.07;;
7029;SDS011;3556;53.500;10.176;2023-07-13T13:01:01;4.47;;;2.17;;
7029;SDS011;3556;53.500;10.176;2023-07-13T13:06:01;5.37;;;2.10;;
7029;SDS011;3556;53.500;10.176;2023-07-13T13:08:33;4.93;;;2.20;;
7029;SDS011;3556;53.500;10.176;2023-07-13T13:11:00;3.87;;;1.80;;
7029;SDS011;3556;53.500;10.176;2023-07-13T13:13:27;3.70;;;2.20;;
7029;SDS011;3556;53.500;10.176;2023-07-13T13:15:53;4.57;;;2.27;;
7029;SDS011;3556;53.500;10.176;2023-07-13T13:18:19;3.13;;;2.20;;
7029;SDS011;3556;53.500;10.176;2023-07-13T13:20:47;4.83;;;2.50;;
7029;SDS011;3556;53.500;10.176;2023-07-13T13:23:18;4.20;;;2.20;;
7029;SDS011;3556;53.500;10.176;2023-07-13T13:25:46;3.50;;;2.20;;
7029;SDS011;3556;53.500;10.176;2023-07-13T13:28:15;4.63;;;2.10;;
7029;SDS011;3556;53.500;10.176;2023-07-13T13:30:43;4.40;;;2.23;;
7029;SDS011;3556;53.500;10.176;2023-07-13T13:33:13;3.00;;;1.90;;
7029;SDS011;3556;53.500;10.176;2023-07-13T13:35:42;1.77;;;1.67;;
7029;SDS011;3556;53.500;10.176;2023-07-13T13:38:12;3.10;;;2.00;;
7029;SDS011;3556;53.500;10.176;2023-07-13T13:40:40;4.30;;;2.20;;
7029;SDS011;3556;53.500;10.176;2023-07-13T13:43:27;2.40;;;2.20;;
7029;SDS011;3556;53.500;10.176;2023-07-13T13:45:56;4.73;;;2.00;;
7029;SDS011;3556;53.500;10.176;2023-07-13T13:48:31;2.10;;;1.90;;
7029;SDS011;3556;53.500;10.176;2023-07-13T13:50:59;2.53;;;1.53;;
7029;SDS011;3556;53.500;10.176;2023-07-13T13:53:26;4.30;;;1.80;;
7029;SDS011;3556;53.500;10.176;2023-07-13T13:55:52;3.50;;;2.13;;
7029;SDS011;3556;53.500;10.176;2023-07-13T13:58:18;2.93;;;1.90;;
7029;SDS011;3556;53.500;10.176;2023-07-13T14:00:44;4.60;;;2.40;;
7029;SDS011;3556;53.500;10.176;2023-07-13T14:03:17;3.20;;;2.13;;
7029;SDS011;3556;53.500;10.176;2023-07-13T14:05:44;3.00;;;2.30;;
7029;SDS011;3556;53.500;10.176;2023-07-13T14:08:20;3.30;;;1.70;;
7029;SDS011;3556;53.500;10.176;2023-07-13T14:10:48;2.50;;;2.03;;
7029;SDS011;3556;53.500;10.176;2023-07-13T14:13:22;6.03;;;2.03;;
7029;SDS011;3556;53.500;10.176;2023-07-13T14:15:52;3.63;;;2.00;;
7029;SDS011;3556;53.500;10.176;2023-07-13T14:18:19;2.20;;;2.00;;
7029;SDS011;3556;53.500;10.176;2023-07-13T14:20:45;6.30;;;1.90;;
7029;SDS011;3556;53.500;10.176;2023-07-13T14:23:13;3.00;;;2.00;;
7029;SDS011;3556;53.500;10.176;2023-07-13T14:25:40;4.13;;;2.10;;
7029;SDS011;3556;53.500;10.176;2023-07-13T14:28:27;3.67;;;2.07;;
7029;SDS011;3556;53.500;10.176;2023-07-13T14:30:53;4.43;;;2.10;;
7029;SDS011;3556;53.500;10.176;2023-07-13T14:33:19;2.60;;;2.10;;
7029;SDS011;3556;53.500;10.176;2023-07-13T14:35:45;4.13;;;2.40;;
7029;SDS011;3556;53.500;10.176;2023-07-13T14:38:13;2.40;;;2.20;;
7029;SDS011;3556;53.500;10.176;2023-07-13T14:40:42;2.90;;;2.30;;
7029;SDS011;3556;53.500;10.176;2023-07-13T14:43:11;3.40;;;2.50;;
7029;SDS011;3556;53.500;10.176;2023-07-13T14:45:41;2.73;;;2.37;;
7029;SDS011;3556;53.500;10.176;2023-07-13T14:48:13;6.40;;;2.40;;
7029;SDS011;3556;53.500;10.176;2023-07-13T14:50:39;6.80;;;2.43;;
7029;SDS011;3556;53.500;10.176;2023-07-13T14:53:08;5.20;;;2.27;;
7029;SDS011;3556;53.500;10.176;2023-07-13T14:55:36;2.40;;;2.10;;
7029;SDS011;3556;53.500;10.176;2023-07-13T14:58:01;4.73;;;2.20;;
7029;SDS011;3556;53.500;10.176;2023-07-13T15:00:27;3.27;;;2.17;;
7029;SDS011;3556;53.500;10.176;2023-07-13T15:02:55;5.83;;;2.47;;
7029;SDS011;3556;53.500;10.176;2023-07-13T15:05:26;3.57;;;2.00;;
7029;SDS011;3556;53.500;10.176;2023-07-13T15:07:56;6.17;;;2.20;;
7029;SDS011;3556;53.500;10.176;2023-07-13T15:10:24;2.67;;;2.40;;
7029;SDS011;3556;53.500;10.176;2023-07-13T15:12:52;3.77;;;2.23;;
7029;SDS011;3556;53.500;10.176;2023-07-13T15:15:21;2.47;;;2.27;;
7029;SDS011;3556;53.500;10.176;2023-07-13T15:17:47;5.90;;;2.43;;
7029;SDS011;3556;53.500;10.176;2023-07-13T15:22:44;4.30;;;2.40;;
7029;SDS011;3556;53.500;10.176;2023-07-13T15:25:15;2.33;;;2.10;;
7029;SDS011;3556;53.500;10.176;2023-07-13T15:27:43;3.43;;;2.13;;
7029;SDS011;3556;53.500;10.176;2023-07-13T15:30:09;2.60;;;2.10;;
7029;SDS011;3556;53.500;10.176;2023-07-13T15:32:35;5.07;;;2.63;;
7029;SDS011;3556;53.500;10.176;2023-07-13T15:35:01;9.43;;;2.67;;
7029;SDS011;3556;53.500;10.176;2023-07-13T15:37:28;7.60;;;2.70;;
7029;SDS011;3556;53.500;10.176;2023-07-13T15:39:54;4.10;;;2.30;;
7029;SDS011;3556;53.500;10.176;2023-07-13T15:42:20;4.10;;;2.70;;
7029;SDS011;3556;53.500;10.176;2023-07-13T15:44:47;2.53;;;2.27;;
7029;SDS011;3556;53.500;10.176;2023-07-13T15:47:14;5.00;;;2.40;;
7029;SDS011;3556;53.500;10.176;2023-07-13T15:49:41;2.17;;;1.80;;
7029;SDS011;3556;53.500;10.176;2023-07-13T15:52:17;3.37;;;2.30;;
7029;SDS011;3556;53.500;10.176;2023-07-13T15:54:44;2.37;;;2.17;;
7029;SDS011;3556;53.500;10.176;2023-07-13T15:57:12;2.07;;;1.80;;